Airfield :
LOGIN :

Register | Disclaimer

   EN    FR    IT 

 










Legend :    VFR   Marginal VFR   IFR   Intensive IFR   Very Intensive IFR
Visi :
Ceiling :
>= 8 km
>= 3000ft
5 to 8 km
1000 to 3000 ft
1500m to 5 km
500 to 1000 ft
800 to 1500m
200 to 500 ft
< 800m
< 200 ft
Symbols :   Thunderstorms  Fog  Heavy snow  Heavy precipitations  Wind > 20 kt
SIGMETs :     Misc.  Thunderstorms  Icing  Turbulence  Mountain Waves  Volcanic Ashes






- Airport Elevation : 126 ft
- IATA code : WIC


EGPC - Wick

CURRENT METAR :
  • 011820Z AUTO 29019KT 9999 FEW043/// 07/01 Q1012

EXPIRED METARs :
  • 011750Z AUTO 30019KT 9999 FEW042/// 07/02 Q1012
  • 011720Z AUTO 29019KT 9999 BKN042/// 08/02 Q1012
  • 011650Z AUTO 30022KT 9999 FEW024/// 08/02 Q1012
  • 011620Z AUTO 30025KT 9999 SCT025/// BKN036/// 09/03 Q1012
  • 011550Z AUTO 30022KT 9999 BKN029/// BKN043/// 09/03 Q1013
  • 011520Z AUTO 30024G34KT 9999 FEW040/// 09/02 Q1013

TAF TAF EGPC
Valid from the 01 at 18:00 until the 02 at 03:00 UTC


011701Z 0118/0203 29018KT 9999 SCT025
TEMPO 0118/0121 30025G35KT
TEMPO 0121/0201 26022G32KT
TEMPO 0201/0203 27035G45KT
PROB30
TEMPO 0201/0203 5000 SHRA BKN014
ATIS : +44 1955 607 596



MET'MAP, your aeronautical weather chart ! - Copyright ORBIFLY December 2007 - Disclaimer

ORBIFLY MET'MAP TEAM :

Programming & Development : Alexandra Zaïnal
Concept & original design : Baudouin d'Aumeries
Assistance for programming : Marc-Olivier Méhu
Technical & hardware support : Manuel Goepfert

Contact : metmap@orbifly.com




SOURCES & CREDITS :

   NOAA